sensor_id;sensor_type;location;lat;lon;timestamp;pressure;altitude;pressure_sealevel;temperature
30765;BMP180;494;48.744;10.106;2023-03-19T03:40:24;95032.00;;;10.90
30765;BMP180;494;48.744;10.106;2023-03-19T03:43:53;95770.00;;;11.20
30765;BMP180;494;48.744;10.106;2023-03-19T04:33:10;94833.00;;;11.40
30765;BMP180;494;48.744;10.106;2023-03-19T04:35:41;95419.00;;;11.30
30765;BMP180;494;48.744;10.106;2023-03-19T04:42:29;95718.00;;;10.80
30765;BMP180;494;48.744;10.106;2023-03-19T04:45:12;95103.00;;;11.50
30765;BMP180;494;48.744;10.106;2023-03-19T04:48:15;95475.00;;;9.80
30765;BMP180;494;48.744;10.106;2023-03-19T04:51:51;94965.00;;;9.50
30765;BMP180;494;48.744;10.106;2023-03-19T04:54:44;95272.00;;;11.90
30765;BMP180;494;48.744;10.106;2023-03-19T04:58:00;94793.00;;;11.10
30765;BMP180;494;48.744;10.106;2023-03-19T05:01:12;95233.00;;;8.90
30765;BMP180;494;48.744;10.106;2023-03-19T05:03:47;95723.00;;;11.80
30765;BMP180;494;48.744;10.106;2023-03-19T05:06:39;95249.00;;;7.70
30765;BMP180;494;48.744;10.106;2023-03-19T05:09:22;94964.00;;;10.90
30765;BMP180;494;48.744;10.106;2023-03-19T05:12:46;94117.00;;;10.60
30765;BMP180;494;48.744;10.106;2023-03-19T05:16:02;95809.00;;;10.60
30765;BMP180;494;48.744;10.106;2023-03-19T05:18:33;95585.00;;;10.10
30765;BMP180;494;48.744;10.106;2023-03-19T05:21:09;94978.00;;;8.40
30765;BMP180;494;48.744;10.106;2023-03-19T05:23:39;95017.00;;;10.70
30765;BMP180;494;48.744;10.106;2023-03-19T05:26:08;95030.00;;;10.90
30765;BMP180;494;48.744;10.106;2023-03-19T05:28:38;95060.00;;;11.00
30765;BMP180;494;48.744;10.106;2023-03-19T05:31:07;95436.00;;;9.70
30765;BMP180;494;48.744;10.106;2023-03-19T05:33:37;95723.00;;;11.30
30765;BMP180;494;48.744;10.106;2023-03-19T05:36:08;95258.00;;;11.10
30765;BMP180;494;48.744;10.106;2023-03-19T05:38:37;95179.00;;;11.20
30765;BMP180;494;48.744;10.106;2023-03-19T05:41:06;95799.00;;;9.50
30765;BMP180;494;48.744;10.106;2023-03-19T05:43:35;94953.00;;;11.10
30765;BMP180;494;48.744;10.106;2023-03-19T05:46:04;95737.00;;;8.20
30765;BMP180;494;48.744;10.106;2023-03-19T05:48:34;95834.00;;;8.90
30765;BMP180;494;48.744;10.106;2023-03-19T05:51:03;95271.00;;;11.30
30765;BMP180;494;48.744;10.106;2023-03-19T05:53:34;95680.00;;;10.40
30765;BMP180;494;48.744;10.106;2023-03-19T05:56:03;94602.00;;;11.30
30765;BMP180;494;48.744;10.106;2023-03-19T05:58:32;95666.00;;;11.50
30765;BMP180;494;48.744;10.106;2023-03-19T06:01:01;95626.00;;;11.40
30765;BMP180;494;48.744;10.106;2023-03-19T06:03:29;95544.00;;;11.30
30765;BMP180;494;48.744;10.106;2023-03-19T06:05:59;94060.00;;;6.90
30765;BMP180;494;48.744;10.106;2023-03-19T06:08:28;95479.00;;;9.80
30765;BMP180;494;48.744;10.106;2023-03-19T06:10:59;95708.00;;;6.10
30765;BMP180;494;48.744;10.106;2023-03-19T06:13:27;95345.00;;;11.00
30765;BMP180;494;48.744;10.106;2023-03-19T06:15:56;95018.00;;;8.80
30765;BMP180;494;48.744;10.106;2023-03-19T06:18:25;95777.00;;;11.10
30765;BMP180;494;48.744;10.106;2023-03-19T06:20:54;94751.00;;;10.10
30765;BMP180;494;48.744;10.106;2023-03-19T06:23:22;95312.00;;;11.10
30765;BMP180;494;48.744;10.106;2023-03-19T06:25:51;95690.00;;;11.30
30765;BMP180;494;48.744;10.106;2023-03-19T06:28:21;94763.00;;;8.90
30765;BMP180;494;48.744;10.106;2023-03-19T06:30:50;95219.00;;;11.30
30765;BMP180;494;48.744;10.106;2023-03-19T06:33:18;95240.00;;;11.30
30765;BMP180;494;48.744;10.106;2023-03-19T06:35:48;95085.00;;;8.10
30765;BMP180;494;48.744;10.106;2023-03-19T06:38:17;95489.00;;;11.20
30765;BMP180;494;48.744;10.106;2023-03-19T06:40:45;95014.00;;;11.30
30765;BMP180;494;48.744;10.106;2023-03-19T06:43:14;95331.00;;;11.40
30765;BMP180;494;48.744;10.106;2023-03-19T06:45:44;94504.00;;;10.20
30765;BMP180;494;48.744;10.106;2023-03-19T06:48:14;95063.00;;;11.30
30765;BMP180;494;48.744;10.106;2023-03-19T06:50:44;95096.00;;;11.50
30765;BMP180;494;48.744;10.106;2023-03-19T06:53:14;95722.00;;;11.60
30765;BMP180;494;48.744;10.106;2023-03-19T06:55:45;95827.00;;;9.90
30765;BMP180;494;48.744;10.106;2023-03-19T06:58:14;95621.00;;;11.70
30765;BMP180;494;48.744;10.106;2023-03-19T07:00:44;95419.00;;;11.70
30765;BMP180;494;48.744;10.106;2023-03-19T07:03:13;95715.00;;;10.90
30765;BMP180;494;48.744;10.106;2023-03-19T07:05:42;95440.00;;;8.30
30765;BMP180;494;48.744;10.106;2023-03-19T07:08:10;95271.00;;;11.80
30765;BMP180;494;48.744;10.106;2023-03-19T07:10:39;95761.00;;;8.50
30765;BMP180;494;48.744;10.106;2023-03-19T07:13:08;95774.00;;;11.70
30765;BMP180;494;48.744;10.106;2023-03-19T07:15:37;94818.00;;;11.70
30765;BMP180;494;48.744;10.106;2023-03-19T07:18:07;95880.00;;;11.70
30765;BMP180;494;48.744;10.106;2023-03-19T07:20:36;95197.00;;;11.00
30765;BMP180;494;48.744;10.106;2023-03-19T07:23:04;95396.00;;;9.30
30765;BMP180;494;48.744;10.106;2023-03-19T07:25:33;95511.00;;;9.50
30765;BMP180;494;48.744;10.106;2023-03-19T07:28:02;94450.00;;;11.60
30765;BMP180;494;48.744;10.106;2023-03-19T07:30:31;95622.00;;;11.60
30765;BMP180;494;48.744;10.106;2023-03-19T07:33:02;95566.00;;;11.60
30765;BMP180;494;48.744;10.106;2023-03-19T07:35:33;95597.00;;;11.70
30765;BMP180;494;48.744;10.106;2023-03-19T07:38:02;95415.00;;;9.40
30765;BMP180;494;48.744;10.106;2023-03-19T07:40:30;95580.00;;;11.90
30765;BMP180;494;48.744;10.106;2023-03-19T07:42:59;95302.00;;;12.00
30765;BMP180;494;48.744;10.106;2023-03-19T07:45:29;95738.00;;;9.10
30765;BMP180;494;48.744;10.106;2023-03-19T07:47:57;94777.00;;;10.80
30765;BMP180;494;48.744;10.106;2023-03-19T07:50:29;94576.00;;;9.10
30765;BMP180;494;48.744;10.106;2023-03-19T07:53:00;94517.00;;;11.90
30765;BMP180;494;48.744;10.106;2023-03-19T07:55:29;95659.00;;;11.90
30765;BMP180;494;48.744;10.106;2023-03-19T07:57:58;95494.00;;;12.00
30765;BMP180;494;48.744;10.106;2023-03-19T08:00:27;95871.00;;;9.80
30765;BMP180;494;48.744;10.106;2023-03-19T08:02:56;94600.00;;;11.50
30765;BMP180;494;48.744;10.106;2023-03-19T08:05:24;94908.00;;;11.80
30765;BMP180;494;48.744;10.106;2023-03-19T08:07:53;95564.00;;;7.70
30765;BMP180;494;48.744;10.106;2023-03-19T08:10:23;94667.00;;;9.40
30765;BMP180;494;48.744;10.106;2023-03-19T08:12:52;95527.00;;;12.10
30765;BMP180;494;48.744;10.106;2023-03-19T08:15:21;95366.00;;;8.40
30765;BMP180;494;48.744;10.106;2023-03-19T08:17:57;95592.00;;;9.00
30765;BMP180;494;48.744;10.106;2023-03-19T08:20:26;94712.00;;;7.20
30765;BMP180;494;48.744;10.106;2023-03-19T08:22:55;95615.00;;;11.90
30765;BMP180;494;48.744;10.106;2023-03-19T08:25:25;95466.00;;;8.20
30765;BMP180;494;48.744;10.106;2023-03-19T08:27:58;94817.00;;;11.90
30765;BMP180;494;48.744;10.106;2023-03-19T08:30:28;95398.00;;;11.70
30765;BMP180;494;48.744;10.106;2023-03-19T08:32:57;94869.00;;;8.90
30765;BMP180;494;48.744;10.106;2023-03-19T08:35:25;95840.00;;;11.00
30765;BMP180;494;48.744;10.106;2023-03-19T08:37:55;95413.00;;;12.10
30765;BMP180;494;48.744;10.106;2023-03-19T08:40:25;95917.00;;;6.80
30765;BMP180;494;48.744;10.106;2023-03-19T08:42:55;95699.00;;;12.30
30765;BMP180;494;48.744;10.106;2023-03-19T08:45:24;95724.00;;;9.60
30765;BMP180;494;48.744;10.106;2023-03-19T08:47:53;95804.00;;;11.10
30765;BMP180;494;48.744;10.106;2023-03-19T08:50:22;95271.00;;;12.30
30765;BMP180;494;48.744;10.106;2023-03-19T08:52:50;95657.00;;;12.20
30765;BMP180;494;48.744;10.106;2023-03-19T08:55:19;95558.00;;;10.50
30765;BMP180;494;48.744;10.106;2023-03-19T08:57:49;95314.00;;;11.10
30765;BMP180;494;48.744;10.106;2023-03-19T09:00:19;95689.00;;;12.30
30765;BMP180;494;48.744;10.106;2023-03-19T09:02:47;94671.00;;;12.60
30765;BMP180;494;48.744;10.106;2023-03-19T09:05:16;94984.00;;;11.50
30765;BMP180;494;48.744;10.106;2023-03-19T09:07:49;95139.00;;;10.70
30765;BMP180;494;48.744;10.106;2023-03-19T09:10:19;95756.00;;;12.70
30765;BMP180;494;48.744;10.106;2023-03-19T09:12:49;96056.00;;;12.90
30765;BMP180;494;48.744;10.106;2023-03-19T09:15:18;95423.00;;;12.10
30765;BMP180;494;48.744;10.106;2023-03-19T09:17:47;95721.00;;;8.70
30765;BMP180;494;48.744;10.106;2023-03-19T09:20:16;95758.00;;;13.40
30765;BMP180;494;48.744;10.106;2023-03-19T09:22:45;95141.00;;;12.60
30765;BMP180;494;48.744;10.106;2023-03-19T09:25:15;94655.00;;;13.70
30765;BMP180;494;48.744;10.106;2023-03-19T09:27:44;94988.00;;;13.90
30765;BMP180;494;48.744;10.106;2023-03-19T09:30:16;95919.00;;;13.80
30765;BMP180;494;48.744;10.106;2023-03-19T09:32:45;95827.00;;;11.80
30765;BMP180;494;48.744;10.106;2023-03-19T09:35:15;94284.00;;;14.00
30765;BMP180;494;48.744;10.106;2023-03-19T09:37:44;95014.00;;;12.20
30765;BMP180;494;48.744;10.106;2023-03-19T09:40:22;95524.00;;;14.10
30765;BMP180;494;48.744;10.106;2023-03-19T09:43:01;95781.00;;;14.20
30765;BMP180;494;48.744;10.106;2023-03-19T09:45:40;95777.00;;;11.70
30765;BMP180;494;48.744;10.106;2023-03-19T09:48:34;95069.00;;;14.40
30765;BMP180;494;48.744;10.106;2023-03-19T09:51:19;95334.00;;;12.30
30765;BMP180;494;48.744;10.106;2023-03-19T09:53:55;95851.00;;;14.70
30765;BMP180;494;48.744;10.106;2023-03-19T09:56:26;95681.00;;;14.80
30765;BMP180;494;48.744;10.106;2023-03-19T09:58:55;95076.00;;;11.90
30765;BMP180;494;48.744;10.106;2023-03-19T10:01:32;94946.00;;;14.90
30765;BMP180;494;48.744;10.106;2023-03-19T10:04:41;95751.00;;;15.20
30765;BMP180;494;48.744;10.106;2023-03-19T10:07:30;95899.00;;;15.40
30765;BMP180;494;48.744;10.106;2023-03-19T10:10:23;94955.00;;;13.50
30765;BMP180;494;48.744;10.106;2023-03-19T10:13:07;94929.00;;;16.40
30765;BMP180;494;48.744;10.106;2023-03-19T10:15:41;95746.00;;;16.80
30765;BMP180;494;48.744;10.106;2023-03-19T10:18:20;95061.00;;;14.40
30765;BMP180;494;48.744;10.106;2023-03-19T10:21:03;94877.00;;;13.60
30765;BMP180;494;48.744;10.106;2023-03-19T10:23:47;94703.00;;;17.50
30765;BMP180;494;48.744;10.106;2023-03-19T10:26:20;94917.00;;;17.80
30765;BMP180;494;48.744;10.106;2023-03-19T10:28:58;94758.00;;;16.30
30765;BMP180;494;48.744;10.106;2023-03-19T10:31:43;95439.00;;;19.50
30765;BMP180;494;48.744;10.106;2023-03-19T10:34:29;95797.00;;;16.90
30765;BMP180;494;48.744;10.106;2023-03-19T10:37:05;95388.00;;;20.50
30765;BMP180;494;48.744;10.106;2023-03-19T10:39:52;95750.00;;;20.30
30765;BMP180;494;48.744;10.106;2023-03-19T10:42:43;95344.00;;;17.70
30765;BMP180;494;48.744;10.106;2023-03-19T10:45:24;95736.00;;;20.60
30765;BMP180;494;48.744;10.106;2023-03-19T10:47:56;95666.00;;;21.10
30765;BMP180;494;48.744;10.106;2023-03-19T10:50:33;95374.00;;;22.10
30765;BMP180;494;48.744;10.106;2023-03-19T10:53:25;95137.00;;;19.10
30765;BMP180;494;48.744;10.106;2023-03-19T10:55:59;95547.00;;;21.20
30765;BMP180;494;48.744;10.106;2023-03-19T10:58:30;95630.00;;;20.60
30765;BMP180;494;48.744;10.106;2023-03-19T11:01:05;95002.00;;;20.00
30765;BMP180;494;48.744;10.106;2023-03-19T11:03:37;95631.00;;;21.10
30765;BMP180;494;48.744;10.106;2023-03-19T11:06:18;95617.00;;;22.70
30765;BMP180;494;48.744;10.106;2023-03-19T11:08:54;95424.00;;;23.70
30765;BMP180;494;48.744;10.106;2023-03-19T11:11:34;95208.00;;;23.10
30765;BMP180;494;48.744;10.106;2023-03-19T11:14:09;95522.00;;;24.20
30765;BMP180;494;48.744;10.106;2023-03-19T11:16:50;95513.00;;;24.30
30765;BMP180;494;48.744;10.106;2023-03-19T11:19:26;95045.00;;;24.80
30765;BMP180;494;48.744;10.106;2023-03-19T11:22:07;95664.00;;;24.80
30765;BMP180;494;48.744;10.106;2023-03-19T11:24:39;95336.00;;;25.90
30765;BMP180;494;48.744;10.106;2023-03-19T11:27:09;95702.00;;;26.10
30765;BMP180;494;48.744;10.106;2023-03-19T11:29:41;94996.00;;;26.30
30765;BMP180;494;48.744;10.106;2023-03-19T11:32:29;95493.00;;;26.00
30765;BMP180;494;48.744;10.106;2023-03-19T11:35:05;95433.00;;;22.70
30765;BMP180;494;48.744;10.106;2023-03-19T11:37:53;95661.00;;;25.00
30765;BMP180;494;48.744;10.106;2023-03-19T11:40:40;95276.00;;;24.60
30765;BMP180;494;48.744;10.106;2023-03-19T11:43:43;95258.00;;;26.30
30765;BMP180;494;48.744;10.106;2023-03-19T11:46:34;95517.00;;;26.50
30765;BMP180;494;48.744;10.106;2023-03-19T11:49:24;95278.00;;;24.70
30765;BMP180;494;48.744;10.106;2023-03-19T11:52:04;95408.00;;;23.20
30765;BMP180;494;48.744;10.106;2023-03-19T11:54:50;95034.00;;;23.70
30765;BMP180;494;48.744;10.106;2023-03-19T11:57:33;95519.00;;;23.60
30765;BMP180;494;48.744;10.106;2023-03-19T12:00:27;95467.00;;;23.40
30765;BMP180;494;48.744;10.106;2023-03-19T12:03:45;95597.00;;;23.20
30765;BMP180;494;48.744;10.106;2023-03-19T12:06:30;95459.00;;;23.10
30765;BMP180;494;48.744;10.106;2023-03-19T12:09:13;95472.00;;;23.00
30765;BMP180;494;48.744;10.106;2023-03-19T12:11:52;95597.00;;;23.00
30765;BMP180;494;48.744;10.106;2023-03-19T12:14:35;94866.00;;;22.30
30765;BMP180;494;48.744;10.106;2023-03-19T12:17:37;95575.00;;;22.80
30765;BMP180;494;48.744;10.106;2023-03-19T12:20:26;95572.00;;;22.90
30765;BMP180;494;48.744;10.106;2023-03-19T12:23:08;95513.00;;;22.50
30765;BMP180;494;48.744;10.106;2023-03-19T12:25:59;95335.00;;;21.60
30765;BMP180;494;48.744;10.106;2023-03-19T12:28:36;95618.00;;;21.40
30765;BMP180;494;48.744;10.106;2023-03-19T12:31:43;95581.00;;;21.70
30765;BMP180;494;48.744;10.106;2023-03-19T12:34:28;95489.00;;;20.80
30765;BMP180;494;48.744;10.106;2023-03-19T12:37:13;95103.00;;;19.20
30765;BMP180;494;48.744;10.106;2023-03-19T12:40:25;95056.00;;;19.50
30765;BMP180;494;48.744;10.106;2023-03-19T12:42:58;95254.00;;;21.80
30765;BMP180;494;48.744;10.106;2023-03-19T12:45:34;95557.00;;;22.50
30765;BMP180;494;48.744;10.106;2023-03-19T12:48:09;95544.00;;;21.80
30765;BMP180;494;48.744;10.106;2023-03-19T12:50:44;95521.00;;;23.70
30765;BMP180;494;48.744;10.106;2023-03-19T12:53:27;95467.00;;;24.20
30765;BMP180;494;48.744;10.106;2023-03-19T12:56:00;95557.00;;;24.50
30765;BMP180;494;48.744;10.106;2023-03-19T12:58:48;95615.00;;;24.50
30765;BMP180;494;48.744;10.106;2023-03-19T13:01:29;95523.00;;;23.80
30765;BMP180;494;48.744;10.106;2023-03-19T13:04:10;95346.00;;;23.70
30765;BMP180;494;48.744;10.106;2023-03-19T13:06:50;95573.00;;;23.60
30765;BMP180;494;48.744;10.106;2023-03-19T13:09:28;95259.00;;;23.90
30765;BMP180;494;48.744;10.106;2023-03-19T13:12:09;95584.00;;;23.40
30765;BMP180;494;48.744;10.106;2023-03-19T13:14:52;95637.00;;;22.20
30765;BMP180;494;48.744;10.106;2023-03-19T13:17:34;94867.00;;;22.60
30765;BMP180;494;48.744;10.106;2023-03-19T13:20:16;95237.00;;;22.20
30765;BMP180;494;48.744;10.106;2023-03-19T13:22:54;95349.00;;;22.20
30765;BMP180;494;48.744;10.106;2023-03-19T13:25:37;95403.00;;;22.50
30765;BMP180;494;48.744;10.106;2023-03-19T13:28:27;95403.00;;;21.30
30765;BMP180;494;48.744;10.106;2023-03-19T13:31:01;95598.00;;;21.80
30765;BMP180;494;48.744;10.106;2023-03-19T13:33:34;95388.00;;;21.70
30765;BMP180;494;48.744;10.106;2023-03-19T13:36:07;94998.00;;;21.50
30765;BMP180;494;48.744;10.106;2023-03-19T13:38:46;95801.00;;;21.60
30765;BMP180;494;48.744;10.106;2023-03-19T13:41:53;95535.00;;;21.90
30765;BMP180;494;48.744;10.106;2023-03-19T13:44:34;95475.00;;;21.70
30765;BMP180;494;48.744;10.106;2023-03-19T13:47:39;95538.00;;;21.40
30765;BMP180;494;48.744;10.106;2023-03-19T13:50:30;95383.00;;;21.00
30765;BMP180;494;48.744;10.106;2023-03-19T13:53:33;95534.00;;;20.90
30765;BMP180;494;48.744;10.106;2023-03-19T13:56:04;94748.00;;;20.70
30765;BMP180;494;48.744;10.106;2023-03-19T13:59:23;95486.00;;;20.10
30765;BMP180;494;48.744;10.106;2023-03-19T14:01:53;95242.00;;;20.00
30765;BMP180;494;48.744;10.106;2023-03-19T14:04:26;95432.00;;;19.30
30765;BMP180;494;48.744;10.106;2023-03-19T14:07:11;95337.00;;;19.20
30765;BMP180;494;48.744;10.106;2023-03-19T14:09:42;95390.00;;;18.50
30765;BMP180;494;48.744;10.106;2023-03-19T14:12:24;95434.00;;;18.90
30765;BMP180;494;48.744;10.106;2023-03-19T14:15:01;95203.00;;;17.40
30765;BMP180;494;48.744;10.106;2023-03-19T14:17:34;95534.00;;;18.50
30765;BMP180;494;48.744;10.106;2023-03-19T14:20:23;95588.00;;;18.50
30765;BMP180;494;48.744;10.106;2023-03-19T14:23:22;95169.00;;;18.00
30765;BMP180;494;48.744;10.106;2023-03-19T14:26:15;94792.00;;;17.50
30765;BMP180;494;48.744;10.106;2023-03-19T14:29:00;95662.00;;;17.30
30765;BMP180;494;48.744;10.106;2023-03-19T14:31:36;95390.00;;;16.90
30765;BMP180;494;48.744;10.106;2023-03-19T14:34:19;95285.00;;;16.40
30765;BMP180;494;48.744;10.106;2023-03-19T14:36:57;95530.00;;;15.00
30765;BMP180;494;48.744;10.106;2023-03-19T14:39:33;95622.00;;;16.60
30765;BMP180;494;48.744;10.106;2023-03-19T14:42:16;95502.00;;;16.40
30765;BMP180;494;48.744;10.106;2023-03-19T14:48:19;95365.00;;;14.60
30765;BMP180;494;48.744;10.106;2023-03-19T14:51:22;95165.00;;;16.70
30765;BMP180;494;48.744;10.106;2023-03-19T14:53:59;95554.00;;;15.60
30765;BMP180;494;48.744;10.106;2023-03-19T14:56:34;95181.00;;;16.70
30765;BMP180;494;48.744;10.106;2023-03-19T14:59:03;95351.00;;;13.10
30765;BMP180;494;48.744;10.106;2023-03-19T15:01:38;95552.00;;;16.90
30765;BMP180;494;48.744;10.106;2023-03-19T15:04:10;95522.00;;;17.00
30765;BMP180;494;48.744;10.106;2023-03-19T15:06:50;95003.00;;;15.00
30765;BMP180;494;48.744;10.106;2023-03-19T15:09:23;95528.00;;;16.50
30765;BMP180;494;48.744;10.106;2023-03-19T15:12:36;95563.00;;;16.90
30765;BMP180;494;48.744;10.106;2023-03-19T15:15:34;95460.00;;;17.10
30765;BMP180;494;48.744;10.106;2023-03-19T15:18:10;95564.00;;;17.60
30765;BMP180;494;48.744;10.106;2023-03-19T15:20:44;95083.00;;;17.80
30765;BMP180;494;48.744;10.106;2023-03-19T15:23:19;94792.00;;;18.10
30765;BMP180;494;48.744;10.106;2023-03-19T15:25:56;95743.00;;;18.00
30765;BMP180;494;48.744;10.106;2023-03-19T15:28:30;94766.00;;;16.60
30765;BMP180;494;48.744;10.106;2023-03-19T15:31:05;95587.00;;;17.80
30765;BMP180;494;48.744;10.106;2023-03-19T15:33:58;95226.00;;;17.80
30765;BMP180;494;48.744;10.106;2023-03-19T15:36:33;95527.00;;;17.90
30765;BMP180;494;48.744;10.106;2023-03-19T15:39:06;95311.00;;;15.30
30765;BMP180;494;48.744;10.106;2023-03-19T15:41:43;95611.00;;;17.70
30765;BMP180;494;48.744;10.106;2023-03-19T15:44:21;95169.00;;;17.50
30765;BMP180;494;48.744;10.106;2023-03-19T15:46:53;95542.00;;;17.40
30765;BMP180;494;48.744;10.106;2023-03-19T15:49:28;95507.00;;;14.00
30765;BMP180;494;48.744;10.106;2023-03-19T15:52:04;95637.00;;;16.90
30765;BMP180;494;48.744;10.106;2023-03-19T15:54:35;95497.00;;;16.80
30765;BMP180;494;48.744;10.106;2023-03-19T15:57:06;95658.00;;;14.80
30765;BMP180;494;48.744;10.106;2023-03-19T15:59:37;95681.00;;;15.80
30765;BMP180;494;48.744;10.106;2023-03-19T16:02:19;95571.00;;;15.30
30765;BMP180;494;48.744;10.106;2023-03-19T16:05:06;94732.00;;;16.70
30765;BMP180;494;48.744;10.106;2023-03-19T16:07:53;95749.00;;;16.30
30765;BMP180;494;48.744;10.106;2023-03-19T16:10:39;95419.00;;;15.10
30765;BMP180;494;48.744;10.106;2023-03-19T16:13:28;95377.00;;;16.00
30765;BMP180;494;48.744;10.106;2023-03-19T16:16:06;95592.00;;;14.90
30765;BMP180;494;48.744;10.106;2023-03-19T16:18:47;95017.00;;;14.80
30765;BMP180;494;48.744;10.106;2023-03-19T16:21:20;95708.00;;;13.10
30765;BMP180;494;48.744;10.106;2023-03-19T16:23:54;95099.00;;;14.50
30765;BMP180;494;48.744;10.106;2023-03-19T16:26:29;95830.00;;;16.00
30765;BMP180;494;48.744;10.106;2023-03-19T16:29:06;95615.00;;;16.00
30765;BMP180;494;48.744;10.106;2023-03-19T16:31:44;95362.00;;;15.60
30765;BMP180;494;48.744;10.106;2023-03-19T16:34:28;95075.00;;;16.00
30765;BMP180;494;48.744;10.106;2023-03-19T16:36:59;95780.00;;;16.10
30765;BMP180;494;48.744;10.106;2023-03-19T16:42:36;95614.00;;;15.90
30765;BMP180;494;48.744;10.106;2023-03-19T16:45:27;95550.00;;;15.80
30765;BMP180;494;48.744;10.106;2023-03-19T16:48:00;95650.00;;;15.60
30765;BMP180;494;48.744;10.106;2023-03-19T16:50:33;95647.00;;;15.30
30765;BMP180;494;48.744;10.106;2023-03-19T16:53:12;94938.00;;;14.60
30765;BMP180;494;48.744;10.106;2023-03-19T16:55:42;95904.00;;;13.60
30765;BMP180;494;48.744;10.106;2023-03-19T16:58:35;95689.00;;;13.70
30765;BMP180;494;48.744;10.106;2023-03-19T17:01:39;94265.00;;;12.40
30765;BMP180;494;48.744;10.106;2023-03-19T17:05:14;94592.00;;;8.20
30765;BMP180;494;48.744;10.106;2023-03-19T17:09:10;95673.00;;;12.80
30765;BMP180;494;48.744;10.106;2023-03-19T17:12:15;95919.00;;;9.90
30765;BMP180;494;48.744;10.106;2023-03-19T17:15:16;94823.00;;;12.80
30765;BMP180;494;48.744;10.106;2023-03-19T17:25:54;95047.00;;;12.50
30765;BMP180;494;48.744;10.106;2023-03-19T17:28:23;94918.00;;;12.70
30765;BMP180;494;48.744;10.106;2023-03-19T17:30:52;95340.00;;;12.80
30765;BMP180;494;48.744;10.106;2023-03-19T17:33:25;95269.00;;;12.80
30765;BMP180;494;48.744;10.106;2023-03-19T17:35:56;95687.00;;;13.10
30765;BMP180;494;48.744;10.106;2023-03-19T17:38:31;95640.00;;;12.80
30765;BMP180;494;48.744;10.106;2023-03-19T17:41:04;95756.00;;;12.90
30765;BMP180;494;48.744;10.106;2023-03-19T17:43:38;95632.00;;;12.00
30765;BMP180;494;48.744;10.106;2023-03-19T17:46:11;95741.00;;;12.60
30765;BMP180;494;48.744;10.106;2023-03-19T17:48:43;94584.00;;;9.20
30765;BMP180;494;48.744;10.106;2023-03-19T17:51:12;95850.00;;;11.90
30765;BMP180;494;48.744;10.106;2023-03-19T17:53:45;95690.00;;;12.20
30765;BMP180;494;48.744;10.106;2023-03-19T17:56:19;95893.00;;;12.30
30765;BMP180;494;48.744;10.106;2023-03-19T17:58:51;95750.00;;;7.90
30765;BMP180;494;48.744;10.106;2023-03-19T18:01:23;95908.00;;;11.60
30765;BMP180;494;48.744;10.106;2023-03-19T18:03:56;95650.00;;;12.20
30765;BMP180;494;48.744;10.106;2023-03-19T18:06:31;95482.00;;;10.90
30765;BMP180;494;48.744;10.106;2023-03-19T18:09:01;94722.00;;;12.10
30765;BMP180;494;48.744;10.106;2023-03-19T18:11:31;95284.00;;;8.40
30765;BMP180;494;48.744;10.106;2023-03-19T18:14:00;95494.00;;;12.10
30765;BMP180;494;48.744;10.106;2023-03-19T18:16:31;95988.00;;;11.90
30765;BMP180;494;48.744;10.106;2023-03-19T18:19:02;94924.00;;;8.60
30765;BMP180;494;48.744;10.106;2023-03-19T18:21:32;95540.00;;;11.90
30765;BMP180;494;48.744;10.106;2023-03-19T18:24:00;95667.00;;;11.50
30765;BMP180;494;48.744;10.106;2023-03-19T18:26:31;94906.00;;;11.90
30765;BMP180;494;48.744;10.106;2023-03-19T18:29:00;95602.00;;;8.80
30765;BMP180;494;48.744;10.106;2023-03-19T18:31:30;95452.00;;;11.30
30765;BMP180;494;48.744;10.106;2023-03-19T18:34:04;96068.00;;;11.60
30765;BMP180;494;48.744;10.106;2023-03-19T18:36:34;95089.00;;;11.30
30765;BMP180;494;48.744;10.106;2023-03-19T18:39:05;95139.00;;;11.40
30765;BMP180;494;48.744;10.106;2023-03-19T18:41:36;94933.00;;;10.70
30765;BMP180;494;48.744;10.106;2023-03-19T18:44:06;95227.00;;;11.30
30765;BMP180;494;48.744;10.106;2023-03-19T18:46:37;95550.00;;;8.50
30765;BMP180;494;48.744;10.106;2023-03-19T18:49:20;95977.00;;;11.20
30765;BMP180;494;48.744;10.106;2023-03-19T18:51:51;95934.00;;;11.10
30765;BMP180;494;48.744;10.106;2023-03-19T18:54:35;95927.00;;;11.00
30765;BMP180;494;48.744;10.106;2023-03-19T18:57:07;95575.00;;;10.80
30765;BMP180;494;48.744;10.106;2023-03-19T18:59:40;96042.00;;;10.60
30765;BMP180;494;48.744;10.106;2023-03-19T19:02:27;94524.00;;;8.10
30765;BMP180;494;48.744;10.106;2023-03-19T19:04:57;95857.00;;;7.60
30765;BMP180;494;48.744;10.106;2023-03-19T19:07:26;95920.00;;;9.80
30765;BMP180;494;48.744;10.106;2023-03-19T19:09:54;94914.00;;;7.90
30765;BMP180;494;48.744;10.106;2023-03-19T19:12:25;95880.00;;;9.80
30765;BMP180;494;48.744;10.106;2023-03-19T19:14:56;95674.00;;;9.90
30765;BMP180;494;48.744;10.106;2023-03-19T19:17:25;95881.00;;;10.30
30765;BMP180;494;48.744;10.106;2023-03-19T19:19:56;95498.00;;;9.10
30765;BMP180;494;48.744;10.106;2023-03-19T19:22:25;95831.00;;;10.10
30765;BMP180;494;48.744;10.106;2023-03-19T19:24:56;94750.00;;;8.80
30765;BMP180;494;48.744;10.106;2023-03-19T19:27:26;94737.00;;;7.90
30765;BMP180;494;48.744;10.106;2023-03-19T19:29:55;94380.00;;;9.40
30765;BMP180;494;48.744;10.106;2023-03-19T19:32:26;94376.00;;;5.80
30765;BMP180;494;48.744;10.106;2023-03-19T19:34:59;95855.00;;;9.90
30765;BMP180;494;48.744;10.106;2023-03-19T19:41:42;95781.00;;;9.70
30765;BMP180;494;48.744;10.106;2023-03-19T19:45:00;94958.00;;;9.60
30765;BMP180;494;48.744;10.106;2023-03-19T20:11:42;95175.00;;;4.30
30765;BMP180;494;48.744;10.106;2023-03-19T20:15:37;94874.00;;;9.70
30765;BMP180;494;48.744;10.106;2023-03-19T20:23:09;94491.00;;;9.30
30765;BMP180;494;48.744;10.106;2023-03-19T20:26:45;96169.00;;;8.90
30765;BMP180;494;48.744;10.106;2023-03-19T20:29:35;94199.00;;;8.90
30765;BMP180;494;48.744;10.106;2023-03-19T20:32:38;95071.00;;;9.00
30765;BMP180;494;48.744;10.106;2023-03-19T20:35:25;95604.00;;;9.10
30765;BMP180;494;48.744;10.106;2023-03-19T20:42:34;95051.00;;;8.30
30765;BMP180;494;48.744;10.106;2023-03-19T20:45:20;94647.00;;;8.10
30765;BMP180;494;48.744;10.106;2023-03-19T20:52:16;94577.00;;;9.30
30765;BMP180;494;48.744;10.106;2023-03-19T20:55:13;95578.00;;;9.50